Terminal Aerodrome Forecast
Issued by NWS Wilmington, OH

Home | Current Version | Previous Version | Text Only | Print | Product List | Glossary On
Versions: 1 2 3 4 5 6 7 8 9 10 11 12 13 14 15 16 17 18 19
427
FTUS41 KILN 182025 AAA
TAFCMH
TAF AMD
KCMH 182025Z 1820/1918 19018G28KT P6SM VCSH OVC025 WS020/22055KT
     FM182100 20018G32KT P6SM -SHRA OVC015 WS020/22055KT
     FM182300 22018G34KT 2SM +SHRA BR VCTS OVC012CB WS020/22055KT
      TEMPO 1823/1824 1SM TSRA OVC008CB
     FM190200 29018G37KT 4SM -SHRA BR OVC012
     FM190600 30018G32KT P6SM OVC015
     FM190900 30015G25KT P6SM OVC018=

USA.gov is the U.S. government's official web portal to all federal, state and local government web resources and services.